sensor_id;sensor_type;location;lat;lon;timestamp;pressure;altitude;pressure_sealevel;temperature;humidity
44140;BME280;29803;51.048;4.686;2022-10-16T00:00:26;101026.13;;;12.31;100.00
44140;BME280;29803;51.048;4.686;2022-10-16T00:02:57;101022.28;;;12.26;100.00
44140;BME280;29803;51.048;4.686;2022-10-16T00:05:28;101018.91;;;12.24;100.00
44140;BME280;29803;51.048;4.686;2022-10-16T00:07:58;101019.28;;;12.21;100.00
44140;BME280;29803;51.048;4.686;2022-10-16T00:10:29;101011.19;;;12.21;100.00
44140;BME280;29803;51.048;4.686;2022-10-16T00:13:00;101005.97;;;12.19;100.00
44140;BME280;29803;51.048;4.686;2022-10-16T00:15:34;101011.72;;;12.16;100.00
44140;BME280;29803;51.048;4.686;2022-10-16T00:18:06;101015.75;;;12.12;100.00
44140;BME280;29803;51.048;4.686;2022-10-16T00:20:37;101016.09;;;12.09;100.00
44140;BME280;29803;51.048;4.686;2022-10-16T00:23:07;101016.59;;;12.04;100.00
44140;BME280;29803;51.048;4.686;2022-10-16T00:25:38;101018.81;;;12.01;100.00
44140;BME280;29803;51.048;4.686;2022-10-16T00:28:09;101016.44;;;11.98;100.00
44140;BME280;29803;51.048;4.686;2022-10-16T00:30:39;101031.09;;;11.95;100.00
44140;BME280;29803;51.048;4.686;2022-10-16T00:33:12;101029.56;;;11.92;100.00
44140;BME280;29803;51.048;4.686;2022-10-16T00:35:42;101025.53;;;11.88;100.00
44140;BME280;29803;51.048;4.686;2022-10-16T00:38:14;101024.69;;;11.88;100.00
44140;BME280;29803;51.048;4.686;2022-10-16T00:40:44;101020.84;;;11.82;100.00
44140;BME280;29803;51.048;4.686;2022-10-16T00:43:41;101032.44;;;11.83;100.00
44140;BME280;29803;51.048;4.686;2022-10-16T00:48:52;101026.69;;;11.78;100.00
44140;BME280;29803;51.048;4.686;2022-10-16T00:51:34;101021.31;;;11.78;100.00
44140;BME280;29803;51.048;4.686;2022-10-16T00:54:10;101014.09;;;11.78;100.00
44140;BME280;29803;51.048;4.686;2022-10-16T00:56:43;101012.25;;;11.79;100.00
44140;BME280;29803;51.048;4.686;2022-10-16T00:59:30;101023.84;;;11.79;100.00
44140;BME280;29803;51.048;4.686;2022-10-16T01:02:02;101022.69;;;11.82;100.00
44140;BME280;29803;51.048;4.686;2022-10-16T01:04:46;101017.31;;;11.82;100.00
44140;BME280;29803;51.048;4.686;2022-10-16T01:15:26;101039.50;;;11.84;100.00
44140;BME280;29803;51.048;4.686;2022-10-16T01:18:14;101029.06;;;11.89;100.00
44140;BME280;29803;51.048;4.686;2022-10-16T01:29:26;101036.94;;;12.07;100.00
44140;BME280;29803;51.048;4.686;2022-10-16T01:32:08;101029.22;;;12.04;100.00
44140;BME280;29803;51.048;4.686;2022-10-16T01:35:11;101027.53;;;11.95;100.00
44140;BME280;29803;51.048;4.686;2022-10-16T01:37:54;101030.09;;;11.88;100.00
44140;BME280;29803;51.048;4.686;2022-10-16T01:40:27;101028.59;;;11.85;100.00
44140;BME280;29803;51.048;4.686;2022-10-16T01:43:06;101030.06;;;11.80;100.00
44140;BME280;29803;51.048;4.686;2022-10-16T01:45:40;101033.59;;;11.72;100.00
44140;BME280;29803;51.048;4.686;2022-10-16T01:48:14;101024.53;;;11.73;100.00
44140;BME280;29803;51.048;4.686;2022-10-16T01:51:02;101022.53;;;11.75;100.00
44140;BME280;29803;51.048;4.686;2022-10-16T01:53:35;101029.75;;;11.75;100.00
44140;BME280;29803;51.048;4.686;2022-10-16T01:56:09;101023.84;;;11.71;100.00
44140;BME280;29803;51.048;4.686;2022-10-16T01:58:45;101023.84;;;11.71;100.00
44140;BME280;29803;51.048;4.686;2022-10-16T02:01:19;101027.56;;;11.70;100.00
44140;BME280;29803;51.048;4.686;2022-10-16T02:03:54;101018.31;;;11.73;100.00
44140;BME280;29803;51.048;4.686;2022-10-16T02:06:26;101028.22;;;11.72;100.00
44140;BME280;29803;51.048;4.686;2022-10-16T02:08:57;101024.00;;;11.70;100.00
44140;BME280;29803;51.048;4.686;2022-10-16T02:11:31;101032.59;;;11.73;100.00
44140;BME280;29803;51.048;4.686;2022-10-16T02:14:06;101031.75;;;11.73;100.00
44140;BME280;29803;51.048;4.686;2022-10-16T02:16:45;101035.63;;;11.70;100.00
44140;BME280;29803;51.048;4.686;2022-10-16T02:19:20;101038.47;;;11.68;100.00
44140;BME280;29803;51.048;4.686;2022-10-16T02:21:54;101040.13;;;11.70;100.00
44140;BME280;29803;51.048;4.686;2022-10-16T02:27:07;101044.16;;;11.74;100.00
44140;BME280;29803;51.048;4.686;2022-10-16T02:29:43;101039.16;;;11.71;100.00
44140;BME280;29803;51.048;4.686;2022-10-16T02:32:21;101034.94;;;11.68;100.00
44140;BME280;29803;51.048;4.686;2022-10-16T02:34:54;101032.75;;;11.72;100.00
44140;BME280;29803;51.048;4.686;2022-10-16T02:37:26;101041.47;;;11.74;100.00
44140;BME280;29803;51.048;4.686;2022-10-16T02:39:58;101042.00;;;11.77;100.00
44140;BME280;29803;51.048;4.686;2022-10-16T02:42:33;101039.47;;;11.76;100.00
44140;BME280;29803;51.048;4.686;2022-10-16T02:45:05;101045.50;;;11.78;100.00
44140;BME280;29803;51.048;4.686;2022-10-16T02:47:40;101033.94;;;11.77;100.00
44140;BME280;29803;51.048;4.686;2022-10-16T02:50:10;101036.94;;;11.74;100.00
44140;BME280;29803;51.048;4.686;2022-10-16T02:52:41;101046.03;;;11.73;100.00
44140;BME280;29803;51.048;4.686;2022-10-16T02:55:11;101040.81;;;11.72;100.00
44140;BME280;29803;51.048;4.686;2022-10-16T02:57:42;101057.13;;;11.70;100.00
44140;BME280;29803;51.048;4.686;2022-10-16T03:00:15;101050.03;;;11.69;100.00
44140;BME280;29803;51.048;4.686;2022-10-16T03:02:46;101055.94;;;11.73;100.00
44140;BME280;29803;51.048;4.686;2022-10-16T03:05:17;101061.13;;;11.74;100.00
44140;BME280;29803;51.048;4.686;2022-10-16T03:07:48;101066.19;;;11.77;100.00
44140;BME280;29803;51.048;4.686;2022-10-16T03:10:20;101056.25;;;11.78;100.00
44140;BME280;29803;51.048;4.686;2022-10-16T03:12:51;101053.94;;;11.83;100.00
44140;BME280;29803;51.048;4.686;2022-10-16T03:15:22;101055.47;;;11.85;100.00
44140;BME280;29803;51.048;4.686;2022-10-16T03:17:53;101061.50;;;11.87;100.00
44140;BME280;29803;51.048;4.686;2022-10-16T03:20:24;101075.13;;;11.86;100.00
44140;BME280;29803;51.048;4.686;2022-10-16T03:22:58;101077.28;;;11.82;100.00
44140;BME280;29803;51.048;4.686;2022-10-16T03:25:28;101075.78;;;11.80;100.00
44140;BME280;29803;51.048;4.686;2022-10-16T03:27:59;101079.28;;;11.80;100.00
44140;BME280;29803;51.048;4.686;2022-10-16T03:30:29;101079.16;;;11.82;100.00
44140;BME280;29803;51.048;4.686;2022-10-16T03:33:00;101083.34;;;11.84;100.00
44140;BME280;29803;51.048;4.686;2022-10-16T03:35:31;101082.34;;;11.85;100.00
44140;BME280;29803;51.048;4.686;2022-10-16T03:38:03;101083.84;;;11.88;100.00
44140;BME280;29803;51.048;4.686;2022-10-16T03:40:33;101082.81;;;11.89;100.00
44140;BME280;29803;51.048;4.686;2022-10-16T03:43:04;101085.69;;;11.87;100.00
44140;BME280;29803;51.048;4.686;2022-10-16T03:45:34;101082.00;;;11.88;100.00
44140;BME280;29803;51.048;4.686;2022-10-16T03:48:06;101071.41;;;11.87;100.00
44140;BME280;29803;51.048;4.686;2022-10-16T03:50:36;101067.72;;;11.88;100.00
44140;BME280;29803;51.048;4.686;2022-10-16T03:53:07;101073.94;;;11.88;100.00
44140;BME280;29803;51.048;4.686;2022-10-16T03:55:37;101079.16;;;11.90;100.00
44140;BME280;29803;51.048;4.686;2022-10-16T03:58:08;101080.00;;;11.90;100.00
44140;BME280;29803;51.048;4.686;2022-10-16T04:00:45;101089.91;;;11.90;100.00
44140;BME280;29803;51.048;4.686;2022-10-16T04:03:17;101091.59;;;11.91;100.00
44140;BME280;29803;51.048;4.686;2022-10-16T04:05:49;101092.41;;;11.91;100.00
44140;BME280;29803;51.048;4.686;2022-10-16T04:08:20;101097.78;;;11.91;100.00
44140;BME280;29803;51.048;4.686;2022-10-16T04:10:50;101112.06;;;11.92;100.00
44140;BME280;29803;51.048;4.686;2022-10-16T04:13:21;101108.56;;;11.91;100.00
44140;BME280;29803;51.048;4.686;2022-10-16T04:15:52;101112.41;;;11.89;100.00
44140;BME280;29803;51.048;4.686;2022-10-16T04:18:22;101108.03;;;11.88;100.00
44140;BME280;29803;51.048;4.686;2022-10-16T04:20:54;101116.47;;;11.85;100.00
44140;BME280;29803;51.048;4.686;2022-10-16T04:23:27;101116.59;;;11.83;100.00
44140;BME280;29803;51.048;4.686;2022-10-16T04:25:58;101116.94;;;11.80;100.00
44140;BME280;29803;51.048;4.686;2022-10-16T04:28:29;101115.56;;;11.76;100.00
44140;BME280;29803;51.048;4.686;2022-10-16T04:31:00;101127.50;;;11.74;100.00
44140;BME280;29803;51.048;4.686;2022-10-16T04:33:36;101130.34;;;11.72;100.00
44140;BME280;29803;51.048;4.686;2022-10-16T04:36:06;101130.34;;;11.72;100.00
44140;BME280;29803;51.048;4.686;2022-10-16T04:38:37;101132.19;;;11.72;100.00
44140;BME280;29803;51.048;4.686;2022-10-16T04:41:08;101139.56;;;11.70;100.00
44140;BME280;29803;51.048;4.686;2022-10-16T04:43:38;101147.16;;;11.66;100.00
44140;BME280;29803;51.048;4.686;2022-10-16T04:46:09;101152.00;;;11.62;100.00
44140;BME280;29803;51.048;4.686;2022-10-16T04:48:40;101154.69;;;11.62;100.00
44140;BME280;29803;51.048;4.686;2022-10-16T04:51:10;101152.84;;;11.63;100.00
44140;BME280;29803;51.048;4.686;2022-10-16T04:53:41;101164.78;;;11.60;100.00
44140;BME280;29803;51.048;4.686;2022-10-16T04:56:11;101158.06;;;11.56;100.00
44140;BME280;29803;51.048;4.686;2022-10-16T04:58:42;101159.56;;;11.51;100.00
44140;BME280;29803;51.048;4.686;2022-10-16T05:01:12;101157.34;;;11.46;100.00
44140;BME280;29803;51.048;4.686;2022-10-16T05:03:43;101155.69;;;11.45;100.00
44140;BME280;29803;51.048;4.686;2022-10-16T05:06:13;101159.34;;;11.44;100.00
44140;BME280;29803;51.048;4.686;2022-10-16T05:08:44;101160.88;;;11.47;100.00
44140;BME280;29803;51.048;4.686;2022-10-16T05:11:14;101163.03;;;11.43;100.00
44140;BME280;29803;51.048;4.686;2022-10-16T05:13:45;101159.34;;;11.44;100.00
44140;BME280;29803;51.048;4.686;2022-10-16T05:16:15;101163.75;;;11.45;100.00
44140;BME280;29803;51.048;4.686;2022-10-16T05:18:46;101165.41;;;11.46;100.00
44140;BME280;29803;51.048;4.686;2022-10-16T05:21:16;101167.59;;;11.43;100.00
44140;BME280;29803;51.048;4.686;2022-10-16T05:23:47;101167.41;;;11.44;100.00
44140;BME280;29803;51.048;4.686;2022-10-16T05:26:17;101179.16;;;11.43;100.00
44140;BME280;29803;51.048;4.686;2022-10-16T05:28:49;101177.50;;;11.42;100.00
44140;BME280;29803;51.048;4.686;2022-10-16T05:31:19;101184.88;;;11.40;100.00
44140;BME280;29803;51.048;4.686;2022-10-16T05:33:50;101191.56;;;11.36;100.00
44140;BME280;29803;51.048;4.686;2022-10-16T05:36:20;101200.00;;;11.41;100.00
44140;BME280;29803;51.048;4.686;2022-10-16T05:38:51;101208.56;;;11.45;100.00
44140;BME280;29803;51.048;4.686;2022-10-16T05:41:22;101196.47;;;11.49;100.00
44140;BME280;29803;51.048;4.686;2022-10-16T05:43:55;101197.47;;;11.48;100.00
44140;BME280;29803;51.048;4.686;2022-10-16T05:46:25;101211.25;;;11.45;100.00
44140;BME280;29803;51.048;4.686;2022-10-16T05:48:59;101215.75;;;11.44;100.00
44140;BME280;29803;51.048;4.686;2022-10-16T05:51:29;101222.16;;;11.43;100.00
44140;BME280;29803;51.048;4.686;2022-10-16T05:54:00;101212.09;;;11.45;100.00
44140;BME280;29803;51.048;4.686;2022-10-16T05:56:30;101220.31;;;11.44;100.00
44140;BME280;29803;51.048;4.686;2022-10-16T05:59:03;101218.94;;;11.39;100.00
44140;BME280;29803;51.048;4.686;2022-10-16T06:01:33;101219.63;;;11.41;100.00
44140;BME280;29803;51.048;4.686;2022-10-16T06:04:04;101225.84;;;11.42;100.00
44140;BME280;29803;51.048;4.686;2022-10-16T06:06:35;101234.06;;;11.40;100.00
44140;BME280;29803;51.048;4.686;2022-10-16T06:09:06;101238.09;;;11.36;100.00
44140;BME280;29803;51.048;4.686;2022-10-16T06:11:37;101234.91;;;11.41;100.00
44140;BME280;29803;51.048;4.686;2022-10-16T06:14:08;101242.44;;;11.37;100.00
44140;BME280;29803;51.048;4.686;2022-10-16T06:16:39;101237.91;;;11.38;100.00
44140;BME280;29803;51.048;4.686;2022-10-16T06:19:09;101238.91;;;11.37;100.00
44140;BME280;29803;51.048;4.686;2022-10-16T06:21:40;101245.66;;;11.41;100.00
44140;BME280;29803;51.048;4.686;2022-10-16T06:24:10;101237.25;;;11.44;100.00
44140;BME280;29803;51.048;4.686;2022-10-16T06:26:41;101248.03;;;11.52;100.00
44140;BME280;29803;51.048;4.686;2022-10-16T06:29:11;101243.69;;;11.59;100.00
44140;BME280;29803;51.048;4.686;2022-10-16T06:31:42;101260.16;;;11.64;100.00
44140;BME280;29803;51.048;4.686;2022-10-16T06:34:13;101260.19;;;11.73;100.00
44140;BME280;29803;51.048;4.686;2022-10-16T06:36:43;101263.94;;;11.80;100.00
44140;BME280;29803;51.048;4.686;2022-10-16T06:39:14;101274.41;;;11.91;100.00
44140;BME280;29803;51.048;4.686;2022-10-16T06:41:44;101276.59;;;12.04;100.00
44140;BME280;29803;51.048;4.686;2022-10-16T06:44:15;101279.13;;;12.13;100.00
44140;BME280;29803;51.048;4.686;2022-10-16T06:46:45;101275.13;;;12.17;100.00
44140;BME280;29803;51.048;4.686;2022-10-16T06:49:16;101282.03;;;12.20;100.00
44140;BME280;29803;51.048;4.686;2022-10-16T06:51:51;101285.91;;;12.26;100.00
44140;BME280;29803;51.048;4.686;2022-10-16T06:54:22;101295.63;;;12.35;100.00
44140;BME280;29803;51.048;4.686;2022-10-16T06:56:52;101292.63;;;12.46;100.00
44140;BME280;29803;51.048;4.686;2022-10-16T06:59:24;101297.50;;;12.59;100.00
44140;BME280;29803;51.048;4.686;2022-10-16T07:01:55;101302.38;;;12.72;100.00
44140;BME280;29803;51.048;4.686;2022-10-16T07:04:25;101313.78;;;12.90;100.00
44140;BME280;29803;51.048;4.686;2022-10-16T07:06:56;101323.56;;;13.07;100.00
44140;BME280;29803;51.048;4.686;2022-10-16T07:09:26;101321.53;;;13.26;100.00
44140;BME280;29803;51.048;4.686;2022-10-16T07:11:57;101330.59;;;13.33;100.00
44140;BME280;29803;51.048;4.686;2022-10-16T07:14:27;101332.59;;;13.39;100.00
44140;BME280;29803;51.048;4.686;2022-10-16T07:16:58;101346.72;;;13.49;100.00
44140;BME280;29803;51.048;4.686;2022-10-16T07:19:28;101341.09;;;13.67;100.00
44140;BME280;29803;51.048;4.686;2022-10-16T07:21:59;101358.75;;;13.78;100.00
44140;BME280;29803;51.048;4.686;2022-10-16T07:24:29;101349.88;;;14.00;100.00
44140;BME280;29803;51.048;4.686;2022-10-16T07:27:00;101361.88;;;14.29;100.00
44140;BME280;29803;51.048;4.686;2022-10-16T07:29:30;101370.91;;;14.90;100.00
44140;BME280;29803;51.048;4.686;2022-10-16T07:32:01;101364.66;;;15.27;100.00
44140;BME280;29803;51.048;4.686;2022-10-16T07:34:32;101374.84;;;15.84;100.00
44140;BME280;29803;51.048;4.686;2022-10-16T07:37:02;101379.91;;;15.72;100.00
44140;BME280;29803;51.048;4.686;2022-10-16T07:39:33;101372.97;;;15.99;100.00
44140;BME280;29803;51.048;4.686;2022-10-16T07:42:04;101386.03;;;16.47;100.00
44140;BME280;29803;51.048;4.686;2022-10-16T07:44:34;101385.31;;;16.60;100.00
44140;BME280;29803;51.048;4.686;2022-10-16T07:47:05;101389.47;;;16.98;100.00
44140;BME280;29803;51.048;4.686;2022-10-16T07:49:35;101397.31;;;17.15;100.00
44140;BME280;29803;51.048;4.686;2022-10-16T07:52:06;101397.44;;;17.28;100.00
44140;BME280;29803;51.048;4.686;2022-10-16T07:54:36;101405.91;;;17.18;100.00
44140;BME280;29803;51.048;4.686;2022-10-16T07:57:07;101411.00;;;17.28;100.00
44140;BME280;29803;51.048;4.686;2022-10-16T07:59:37;101408.91;;;17.58;100.00
44140;BME280;29803;51.048;4.686;2022-10-16T08:02:08;101407.75;;;17.67;100.00
44140;BME280;29803;51.048;4.686;2022-10-16T08:04:38;101409.00;;;17.71;100.00
44140;BME280;29803;51.048;4.686;2022-10-16T08:07:09;101408.63;;;18.16;100.00
44140;BME280;29803;51.048;4.686;2022-10-16T08:09:39;101410.25;;;18.58;100.00
44140;BME280;29803;51.048;4.686;2022-10-16T08:12:10;101418.56;;;18.50;100.00
44140;BME280;29803;51.048;4.686;2022-10-16T08:14:41;101426.94;;;18.55;100.00
44140;BME280;29803;51.048;4.686;2022-10-16T08:17:13;101434.28;;;18.61;100.00
44140;BME280;29803;51.048;4.686;2022-10-16T08:19:47;101433.00;;;18.57;100.00
44140;BME280;29803;51.048;4.686;2022-10-16T08:22:18;101433.38;;;18.41;100.00
44140;BME280;29803;51.048;4.686;2022-10-16T08:24:48;101441.97;;;18.51;100.00
44140;BME280;29803;51.048;4.686;2022-10-16T08:27:18;101431.56;;;18.61;100.00
44140;BME280;29803;51.048;4.686;2022-10-16T08:29:52;101432.06;;;18.91;100.00
44140;BME280;29803;51.048;4.686;2022-10-16T08:32:22;101425.19;;;19.08;100.00
44140;BME280;29803;51.048;4.686;2022-10-16T08:34:53;101434.78;;;18.84;100.00
44140;BME280;29803;51.048;4.686;2022-10-16T08:37:23;101427.91;;;18.95;100.00
44140;BME280;29803;51.048;4.686;2022-10-16T08:39:57;101433.53;;;19.07;100.00
44140;BME280;29803;51.048;4.686;2022-10-16T08:43:18;101448.38;;;18.84;100.00
44140;BME280;29803;51.048;4.686;2022-10-16T08:48:54;101443.53;;;19.92;100.00
44140;BME280;29803;51.048;4.686;2022-10-16T08:51:32;101449.16;;;20.11;100.00
44140;BME280;29803;51.048;4.686;2022-10-16T08:56:48;101456.91;;;20.65;100.00
44140;BME280;29803;51.048;4.686;2022-10-16T08:59:19;101461.38;;;20.91;100.00
44140;BME280;29803;51.048;4.686;2022-10-16T09:01:51;101456.25;;;21.33;100.00
44140;BME280;29803;51.048;4.686;2022-10-16T09:12:46;101472.19;;;21.61;100.00
44140;BME280;29803;51.048;4.686;2022-10-16T09:21:13;101474.03;;;21.11;100.00
44140;BME280;29803;51.048;4.686;2022-10-16T09:23:46;101466.78;;;20.98;100.00
44140;BME280;29803;51.048;4.686;2022-10-16T09:26:17;101473.84;;;20.16;100.00
44140;BME280;29803;51.048;4.686;2022-10-16T09:28:52;101468.66;;;20.66;100.00
44140;BME280;29803;51.048;4.686;2022-10-16T09:31:23;101479.41;;;20.92;100.00
44140;BME280;29803;51.048;4.686;2022-10-16T09:33:57;101483.44;;;21.71;100.00
44140;BME280;29803;51.048;4.686;2022-10-16T09:36:28;101479.63;;;21.72;100.00
44140;BME280;29803;51.048;4.686;2022-10-16T09:39:10;101480.28;;;21.50;100.00
44140;BME280;29803;51.048;4.686;2022-10-16T09:41:44;101485.75;;;21.50;100.00
44140;BME280;29803;51.048;4.686;2022-10-16T09:44:23;101486.31;;;21.77;100.00
44140;BME280;29803;51.048;4.686;2022-10-16T09:47:12;101487.56;;;21.81;100.00
44140;BME280;29803;51.048;4.686;2022-10-16T09:49:54;101488.78;;;22.03;100.00
44140;BME280;29803;51.048;4.686;2022-10-16T09:52:26;101491.88;;;21.45;100.00
44140;BME280;29803;51.048;4.686;2022-10-16T09:54:57;101490.47;;;21.36;100.00
44140;BME280;29803;51.048;4.686;2022-10-16T09:57:28;101495.16;;;21.22;100.00
44140;BME280;29803;51.048;4.686;2022-10-16T10:00:08;101496.28;;;21.08;100.00
44140;BME280;29803;51.048;4.686;2022-10-16T10:02:39;101494.88;;;19.96;100.00
44140;BME280;29803;51.048;4.686;2022-10-16T10:05:29;101496.13;;;19.33;100.00
44140;BME280;29803;51.048;4.686;2022-10-16T10:08:02;101492.78;;;19.18;100.00
44140;BME280;29803;51.048;4.686;2022-10-16T10:10:42;101492.56;;;19.13;100.00
44140;BME280;29803;51.048;4.686;2022-10-16T10:13:20;101502.13;;;18.89;100.00
44140;BME280;29803;51.048;4.686;2022-10-16T10:15:52;101507.78;;;18.94;100.00
44140;BME280;29803;51.048;4.686;2022-10-16T10:18:23;101505.28;;;18.93;100.00
44140;BME280;29803;51.048;4.686;2022-10-16T10:21:02;101504.72;;;19.30;100.00
44140;BME280;29803;51.048;4.686;2022-10-16T10:23:33;101510.81;;;19.72;100.00
44140;BME280;29803;51.048;4.686;2022-10-16T10:31:38;101509.91;;;19.12;100.00
44140;BME280;29803;51.048;4.686;2022-10-16T10:34:30;101515.66;;;18.76;100.00
44140;BME280;29803;51.048;4.686;2022-10-16T10:37:37;101518.69;;;18.53;100.00
44140;BME280;29803;51.048;4.686;2022-10-16T10:42:53;101504.56;;;18.23;100.00
44140;BME280;29803;51.048;4.686;2022-10-16T10:45:38;101500.69;;;18.04;100.00
44140;BME280;29803;51.048;4.686;2022-10-16T10:48:19;101508.09;;;17.89;100.00
44140;BME280;29803;51.048;4.686;2022-10-16T10:51:04;101511.16;;;17.79;100.00
44140;BME280;29803;51.048;4.686;2022-10-16T10:59:14;101506.44;;;17.88;100.00
44140;BME280;29803;51.048;4.686;2022-10-16T11:05:06;101515.75;;;19.02;100.00
44140;BME280;29803;51.048;4.686;2022-10-16T11:07:57;101522.03;;;19.16;100.00
44140;BME280;29803;51.048;4.686;2022-10-16T11:10:35;101518.28;;;19.17;100.00
44140;BME280;29803;51.048;4.686;2022-10-16T11:13:23;101518.75;;;19.54;100.00
44140;BME280;29803;51.048;4.686;2022-10-16T11:15:59;101515.63;;;19.83;100.00
44140;BME280;29803;51.048;4.686;2022-10-16T11:21:13;101518.91;;;20.18;100.00
44140;BME280;29803;51.048;4.686;2022-10-16T11:23:55;101518.06;;;20.18;100.00
44140;BME280;29803;51.048;4.686;2022-10-16T11:26:31;101506.97;;;20.20;100.00
44140;BME280;29803;51.048;4.686;2022-10-16T11:29:11;101515.66;;;20.61;100.00
44140;BME280;29803;51.048;4.686;2022-10-16T11:31:47;101512.47;;;20.71;100.00
44140;BME280;29803;51.048;4.686;2022-10-16T11:34:28;101519.94;;;20.82;100.00
44140;BME280;29803;51.048;4.686;2022-10-16T11:37:12;101518.56;;;20.66;100.00
44140;BME280;29803;51.048;4.686;2022-10-16T11:39:45;101511.94;;;20.87;100.00
44140;BME280;29803;51.048;4.686;2022-10-16T11:42:22;101510.22;;;20.48;100.00
44140;BME280;29803;51.048;4.686;2022-10-16T11:45:03;101508.13;;;20.57;100.00
44140;BME280;29803;51.048;4.686;2022-10-16T11:47:43;101508.38;;;20.35;100.00
44140;BME280;29803;51.048;4.686;2022-10-16T11:50:38;101499.41;;;20.28;100.00
44140;BME280;29803;51.048;4.686;2022-10-16T11:55:45;101506.13;;;20.19;100.00
44140;BME280;29803;51.048;4.686;2022-10-16T11:58:38;101512.03;;;20.09;100.00
44140;BME280;29803;51.048;4.686;2022-10-16T12:01:31;101512.78;;;20.36;100.00
44140;BME280;29803;51.048;4.686;2022-10-16T12:04:22;101506.47;;;20.42;100.00
44140;BME280;29803;51.048;4.686;2022-10-16T12:07:03;101506.88;;;20.53;100.00
44140;BME280;29803;51.048;4.686;2022-10-16T12:09:40;101503.44;;;20.71;100.00
44140;BME280;29803;51.048;4.686;2022-10-16T12:12:27;101503.34;;;20.90;100.00
44140;BME280;29803;51.048;4.686;2022-10-16T12:17:38;101489.53;;;20.34;100.00
44140;BME280;29803;51.048;4.686;2022-10-16T12:22:48;101505.16;;;19.80;100.00
44140;BME280;29803;51.048;4.686;2022-10-16T12:25:24;101510.38;;;19.88;100.00
44140;BME280;29803;51.048;4.686;2022-10-16T12:27:56;101498.41;;;20.03;100.00
44140;BME280;29803;51.048;4.686;2022-10-16T12:30:30;101499.66;;;20.07;100.00
44140;BME280;29803;51.048;4.686;2022-10-16T12:33:34;101512.88;;;19.90;100.00
44140;BME280;29803;51.048;4.686;2022-10-16T12:38:49;101517.69;;;19.95;100.00
44140;BME280;29803;51.048;4.686;2022-10-16T12:41:31;101517.88;;;20.06;100.00
44140;BME280;29803;51.048;4.686;2022-10-16T12:44:03;101502.56;;;20.12;100.00
44140;BME280;29803;51.048;4.686;2022-10-16T12:46:37;101496.06;;;20.20;100.00
44140;BME280;29803;51.048;4.686;2022-10-16T12:51:42;101500.25;;;20.22;100.00
44140;BME280;29803;51.048;4.686;2022-10-16T12:54:36;101501.06;;;20.23;100.00
44140;BME280;29803;51.048;4.686;2022-10-16T12:57:32;101519.56;;;20.07;100.00
44140;BME280;29803;51.048;4.686;2022-10-16T13:25:44;101522.66;;;18.98;100.00
44140;BME280;29803;51.048;4.686;2022-10-16T13:28:21;101519.22;;;18.76;100.00
44140;BME280;29803;51.048;4.686;2022-10-16T13:30:57;101530.69;;;18.72;100.00
44140;BME280;29803;51.048;4.686;2022-10-16T13:36:03;101526.63;;;18.48;100.00
44140;BME280;29803;51.048;4.686;2022-10-16T13:38:35;101527.63;;;18.47;100.00
44140;BME280;29803;51.048;4.686;2022-10-16T13:41:17;101525.97;;;18.46;100.00
44140;BME280;29803;51.048;4.686;2022-10-16T13:43:52;101526.41;;;18.49;100.00
44140;BME280;29803;51.048;4.686;2022-10-16T13:46:26;101524.75;;;18.48;100.00
44140;BME280;29803;51.048;4.686;2022-10-16T13:49:05;101517.88;;;18.59;100.00
44140;BME280;29803;51.048;4.686;2022-10-16T13:51:36;101514.44;;;18.78;100.00
44140;BME280;29803;51.048;4.686;2022-10-16T13:54:09;101519.94;;;18.98;100.00
44140;BME280;29803;51.048;4.686;2022-10-16T13:56:41;101506.16;;;19.13;100.00
44140;BME280;29803;51.048;4.686;2022-10-16T13:59:36;101502.34;;;19.01;100.00
44140;BME280;29803;51.048;4.686;2022-10-16T14:04:49;101505.16;;;18.66;100.00
44140;BME280;29803;51.048;4.686;2022-10-16T14:07:24;101513.13;;;18.68;100.00
44140;BME280;29803;51.048;4.686;2022-10-16T14:10:07;101516.09;;;18.73;100.00
44140;BME280;29803;51.048;4.686;2022-10-16T14:12:56;101517.16;;;18.78;100.00
44140;BME280;29803;51.048;4.686;2022-10-16T14:15:31;101524.03;;;18.74;100.00
44140;BME280;29803;51.048;4.686;2022-10-16T14:18:03;101511.06;;;18.76;100.00
44140;BME280;29803;51.048;4.686;2022-10-16T14:20:34;101516.69;;;18.68;100.00
44140;BME280;29803;51.048;4.686;2022-10-16T14:23:20;101514.00;;;18.75;100.00
44140;BME280;29803;51.048;4.686;2022-10-16T14:25:51;101515.47;;;18.77;100.00
44140;BME280;29803;51.048;4.686;2022-10-16T14:28:23;101514.00;;;18.81;100.00
44140;BME280;29803;51.048;4.686;2022-10-16T14:30:55;101515.06;;;18.87;100.00
44140;BME280;29803;51.048;4.686;2022-10-16T14:38:42;101518.66;;;18.94;100.00
44140;BME280;29803;51.048;4.686;2022-10-16T14:41:13;101509.06;;;18.98;100.00
44140;BME280;29803;51.048;4.686;2022-10-16T14:43:43;101510.72;;;18.93;100.00
44140;BME280;29803;51.048;4.686;2022-10-16T14:46:19;101509.63;;;18.87;100.00
44140;BME280;29803;51.048;4.686;2022-10-16T14:48:52;101515.28;;;18.79;100.00
44140;BME280;29803;51.048;4.686;2022-10-16T14:51:24;101503.47;;;18.65;100.00
44140;BME280;29803;51.048;4.686;2022-10-16T14:53:55;101493.00;;;18.55;100.00
44140;BME280;29803;51.048;4.686;2022-10-16T14:56:29;101505.50;;;18.43;100.00
44140;BME280;29803;51.048;4.686;2022-10-16T14:59:00;101493.75;;;18.36;100.00
44140;BME280;29803;51.048;4.686;2022-10-16T15:01:31;101502.06;;;18.28;100.00
44140;BME280;29803;51.048;4.686;2022-10-16T15:04:09;101502.22;;;18.20;100.00
44140;BME280;29803;51.048;4.686;2022-10-16T15:06:42;101498.88;;;18.18;100.00